CheckWX is a tool to help pilots better visualize weather data.  It is not intended as a substitute for an official pre-flight weather briefing.

07:06:25 UTC

KCID TAF
The Eastern Iowa Airport
Cedar Rapids, Iowa, USA
KCID 150658Z 1507/1606 25005KT P6SM SKC TEMPO 1507/1510 5SM BR

Nov-15@
07:00 UTC

Nov-15 @ 07:00 UTC

Nov-16@
06:00 UTC

Nov-16 @ 06:00 UTC

KCID 150658Z 1507/1606 25005KT P6SM SKC
Wind
  • 250° at 5 KTS
Cloud Levels
  • Clear skies

Nov-15@
07:00 UTC

Nov-15 @ 07:00 UTC

Nov-15@
10:00 UTC

Nov-15 @ 10:00 UTC

TEMPO 1507/1510 5SM BR

Temporary

Temporary Changes expected for less than half the time period

Conditions
Mist